Time;durP1;ratioP1;P1;durP2;ratioP2;P2;SDS_P1;SDS_P2;PMS_P1;PMS_P2;Temp;Humidity;BMP_temperature;BMP_pressure;BME280_temperature;BME280_humidity;BME280_pressure;Samples;Min_cycle;Max_cycle;Signal;HPM_P1;HPM_P2
2022/09/05 00:02:54;;;;;;;12.25;5.35;;;;;;;13.73;61.71;100859.88;1687211;85;21226;-82
2022/09/05 00:06:13;;;;;;;6.22;5.17;;;;;;;13.80;61.43;100854.84;1687175;85;21240;-82
2022/09/05 00:09:55;;;;;;;9.25;5.10;;;;;;;13.84;61.33;100862.20;1687385;85;21216;-76
2022/09/05 00:13:06;;;;;;;8.55;5.90;;;;;;;13.88;61.13;100860.80;1687222;85;21212;-77
2022/09/05 00:16:39;;;;;;;8.00;5.62;;;;;;;13.96;60.75;100861.23;1685885;85;21188;-82
2022/09/05 00:20:08;;;;;;;9.78;5.45;;;;;;;13.93;60.73;100858.88;1687251;85;21196;-76
2022/09/05 00:23:56;;;;;;;8.23;6.22;;;;;;;13.93;60.59;100857.50;1657637;85;21236;-82
2022/09/05 00:27:26;;;;;;;8.83;6.15;;;;;;;13.95;60.49;100852.12;1679621;85;21225;-76
2022/09/05 00:30:32;;;;;;;13.38;7.28;;;;;;;13.93;60.46;100851.48;1678334;85;21252;-82
2022/09/05 00:34:06;;;;;;;15.72;10.18;;;;;;;13.82;60.79;100853.27;1679407;85;21216;-76
2022/09/05 00:37:16;;;;;;;20.45;10.82;;;;;;;13.93;60.63;100857.50;1666551;86;21193;-77
2022/09/05 00:40:55;;;;;;;30.80;14.63;;;;;;;13.94;60.60;100857.83;1715393;83;21195;-81
2022/09/05 00:44:02;;;;;;;27.58;13.90;;;;;;;13.77;60.97;100848.84;1659679;86;21224;-76
2022/09/05 00:47:34;;;;;;;30.50;15.43;;;;;;;13.79;60.98;100848.16;1715162;83;21228;-82
2022/09/05 00:50:45;;;;;;;36.05;15.40;;;;;;;13.81;60.80;100847.44;1659211;86;21718;-82
2022/09/05 00:54:07;;;;;;;33.90;14.70;;;;;;;13.82;60.76;100845.02;1716205;83;21192;-77
2022/09/05 00:57:41;;;;;;;28.07;12.60;;;;;;;13.87;60.57;100843.94;1658632;86;21232;-82
2022/09/05 01:01:01;;;;;;;23.25;11.57;;;;;;;13.65;60.79;100845.69;1716339;83;21484;-81
2022/09/05 01:04:24;;;;;;;17.60;9.60;;;;;;;13.64;60.80;100847.22;1715976;83;21212;-81
2022/09/05 01:07:54;;;;;;;13.65;7.62;;;;;;;13.52;61.06;100848.19;1692792;83;21733;-76
2022/09/05 01:11:13;;;;;;;14.83;6.95;;;;;;;13.57;61.01;100845.73;1628588;88;21173;-76
2022/09/05 01:14:34;;;;;;;14.87;7.80;;;;;;;13.52;61.18;100843.54;1716479;83;21201;-76
2022/09/05 01:18:18;;;;;;;16.90;7.22;;;;;;;13.65;60.86;100843.46;1716609;83;21180;-82
2022/09/05 01:21:47;;;;;;;11.70;6.58;;;;;;;13.68;60.64;100847.20;1703313;83;21676;-82
2022/09/05 01:25:17;;;;;;;15.03;7.03;;;;;;;13.70;60.52;100845.14;1639428;84;21196;-76
2022/09/05 01:28:47;;;;;;;10.23;5.92;;;;;;;13.65;60.66;100843.46;1694126;85;21161;-83
2022/09/05 01:32:19;;;;;;;8.43;5.72;;;;;;;13.58;60.79;100845.22;1693898;85;21248;-81
2022/09/05 01:36:04;;;;;;;8.98;6.45;;;;;;;13.64;60.58;100846.70;1692932;84;21204;-82
2022/09/05 01:39:35;;;;;;;8.38;6.03;;;;;;;13.71;60.12;100842.72;1694221;85;21810;-81
2022/09/05 01:42:49;;;;;;;10.00;5.65;;;;;;;13.47;60.55;100844.61;1694213;84;21702;-77
2022/09/05 01:46:29;;;;;;;11.45;6.37;;;;;;;13.54;60.60;100843.34;1694054;85;21189;-76
2022/09/05 01:50:03;;;;;;;11.18;6.30;;;;;;;13.48;60.85;100843.56;1694084;84;21236;-82
2022/09/05 01:53:28;;;;;;;10.20;6.62;;;;;;;13.56;60.55;100846.78;1694172;85;21200;-82
2022/09/05 01:56:58;;;;;;;9.48;6.10;;;;;;;13.59;60.48;100842.80;1694426;85;21183;-81
2022/09/05 02:00:30;;;;;;;11.65;5.25;;;;;;;13.62;60.39;100843.81;1694166;85;21798;-77
2022/09/05 02:04:13;;;;;;;10.32;5.20;;;;;;;13.49;60.62;100845.79;1694161;85;21177;-76
2022/09/05 02:07:37;;;;;;;10.20;6.15;;;;;;;13.49;60.70;100838.92;1693323;85;21248;-77
2022/09/05 02:10:54;;;;;;;9.18;5.87;;;;;;;13.48;60.58;100840.81;1692883;85;21228;-76
2022/09/05 02:14:05;;;;;;;14.00;5.40;;;;;;;13.51;60.43;100835.48;1694055;84;21813;-76
2022/09/05 02:17:33;;;;;;;11.30;6.15;;;;;;;13.49;60.39;100838.39;1694304;85;21184;-81
2022/09/05 02:20:51;;;;;;;10.53;4.67;;;;;;;13.62;59.97;100836.94;1694072;85;21244;-76
2022/09/05 02:24:12;;;;;;;7.30;5.30;;;;;;;13.54;59.93;100831.83;1693106;83;21968;-76
2022/09/05 02:27:32;;;;;;;10.60;6.03;;;;;;;13.47;60.27;100832.77;1678565;85;21217;-76
2022/09/05 02:30:43;;;;;;;7.62;5.55;;;;;;;13.50;60.08;100825.02;1677503;85;22441;-82
2022/09/05 02:33:59;;;;;;;6.95;5.87;;;;;;;13.43;60.15;100825.39;1679081;85;21193;-82
2022/09/05 02:37:39;;;;;;;9.18;5.70;;;;;;;13.41;60.14;100831.61;1678382;85;21227;-82
2022/09/05 02:41:04;;;;;;;8.08;5.70;;;;;;;13.41;59.94;100824.73;1678906;85;21209;-77
2022/09/05 02:44:16;;;;;;;6.00;5.10;;;;;;;13.29;60.13;100825.66;1678786;85;21270;-82
2022/09/05 02:47:36;;;;;;;6.85;5.47;;;;;;;13.24;60.22;100835.48;1679340;85;21209;-82
2022/09/05 02:50:59;;;;;;;8.33;5.50;;;;;;;13.27;60.03;100833.76;1677672;85;21256;-82
2022/09/05 02:54:25;;;;;;;10.35;6.08;;;;;;;13.34;59.82;100837.48;1678552;85;21449;-79
2022/09/05 02:58:02;;;;;;;7.60;5.22;;;;;;;13.34;59.71;100833.36;1662087;85;21165;-78
2022/09/05 03:01:21;;;;;;;9.68;5.25;;;;;;;13.34;59.69;100832.50;1678698;85;21201;-80
2022/09/05 03:04:38;;;;;;;7.33;4.80;;;;;;;13.38;59.56;100842.09;1678777;85;21201;-81
2022/09/05 03:08:09;;;;;;;8.70;4.95;;;;;;;13.45;59.45;100842.54;1678794;85;21213;-76
2022/09/05 03:11:55;;;;;;;10.18;5.15;;;;;;;13.47;59.48;100841.01;1678929;85;21185;-76
2022/09/05 03:15:37;;;;;;;7.53;5.00;;;;;;;13.49;59.41;100849.91;1678836;85;21252;-76
2022/09/05 03:19:38;;;;;;;8.08;4.78;;;;;;;13.54;59.41;100856.56;1678771;85;21778;-76
2022/09/05 03:22:51;;;;;;;10.90;5.30;;;;;;;13.67;59.03;100855.11;1678771;85;21196;-81
2022/09/05 03:26:38;;;;;;;6.47;4.40;;;;;;;13.63;59.15;100859.27;1682772;84;21789;-75
2022/09/05 03:29:53;;;;;;;6.87;4.47;;;;;;;13.79;58.78;100864.13;1685519;85;21220;-77
2022/09/05 03:33:32;;;;;;;7.65;4.67;;;;;;;13.74;59.14;100867.10;1717404;83;21216;-77
2022/09/05 03:37:06;;;;;;;6.92;5.37;;;;;;;13.88;58.57;100869.05;1717774;83;21296;-77
2022/09/05 03:40:54;;;;;;;7.30;4.58;;;;;;;13.98;58.42;100871.02;1692399;83;21721;-76
2022/09/05 03:44:20;;;;;;;4.85;4.00;;;;;;;14.08;58.19;100863.89;1718247;83;21267;-82
2022/09/05 03:48:05;;;;;;;4.87;3.90;;;;;;;14.00;58.57;100867.55;1717421;83;21750;-76
2022/09/05 03:51:45;;;;;;;8.75;4.22;;;;;;;14.16;58.32;100866.58;1718524;83;21160;-77
2022/09/05 03:55:06;;;;;;;7.47;3.95;;;;;;;14.26;58.28;100874.56;1717361;83;21220;-83
2022/09/05 03:58:24;;;;;;;6.35;3.70;;;;;;;14.43;57.91;100877.98;1686207;85;21188;-82
2022/09/05 04:01:43;;;;;;;10.32;4.85;;;;;;;14.61;57.57;100873.53;1686455;85;21198;-82
2022/09/05 04:04:57;;;;;;;8.08;3.77;;;;;;;14.82;57.09;100875.02;1686368;85;21774;-76
2022/09/05 04:08:21;;;;;;;8.80;4.67;;;;;;;14.91;56.94;100875.75;1686416;85;21865;-76
2022/09/05 04:11:50;;;;;;;17.87;5.80;;;;;;;14.87;57.02;100878.06;1686558;85;21181;-82
2022/09/05 04:15:12;;;;;;;11.18;4.65;;;;;;;14.96;57.16;100876.91;1718558;83;21208;-82
2022/09/05 04:18:37;;;;;;;6.12;4.05;;;;;;;15.23;56.72;100877.23;1718662;83;21216;-82
2022/09/05 04:21:43;;;;;;;7.33;4.17;;;;;;;15.44;56.44;100871.79;1718796;83;21725;-82
2022/09/05 04:25:08;;;;;;;7.25;4.22;;;;;;;15.70;56.21;100874.52;1685292;85;21200;-82
2022/09/05 04:28:29;;;;;;;8.85;4.05;;;;;;;15.63;56.81;100872.20;1650852;86;21765;-82
2022/09/05 04:32:03;;;;;;;5.90;3.90;;;;;;;15.78;56.95;100863.38;1673449;84;21742;-77
2022/09/05 04:35:30;;;;;;;6.22;3.12;;;;;;;15.96;57.21;100867.05;1686764;85;21240;-81
2022/09/05 04:38:44;;;;;;;4.28;3.20;;;;;;;16.19;56.92;100873.20;1679246;85;21295;-83
2022/09/05 04:42:14;;;;;;;6.85;3.25;;;;;;;16.23;56.99;100875.02;1657292;86;21176;-78
2022/09/05 04:45:20;;;;;;;6.15;2.40;;;;;;;16.36;56.87;100871.83;1657162;86;21268;-78
2022/09/05 04:48:37;;;;;;;7.40;2.65;;;;;;;16.55;56.57;100865.28;1672881;85;21776;-83
2022/09/05 04:52:08;;;;;;;4.22;2.20;;;;;;;16.78;56.21;100868.66;1673151;86;21228;-77
2022/09/05 04:55:16;;;;;;;2.30;1.92;;;;;;;16.97;54.67;100875.34;1672871;86;21205;-77
2022/09/05 04:58:35;;;;;;;8.25;2.62;;;;;;;17.07;53.78;100868.05;1659020;86;21834;-82
2022/09/05 05:01:50;;;;;;;4.37;2.20;;;;;;;17.33;53.28;100870.95;1669844;85;21221;-76
2022/09/05 05:04:58;;;;;;;4.78;2.47;;;;;;;17.48;52.50;100872.70;1669490;85;21236;-76
2022/09/05 05:08:27;;;;;;;4.47;1.98;;;;;;;17.67;52.72;100870.51;1642691;85;21181;-82
2022/09/05 05:12:05;;;;;;;2.90;1.95;;;;;;;17.88;52.60;100873.69;1669950;83;21730;-83
2022/09/05 05:15:20;;;;;;;3.55;1.87;;;;;;;18.20;52.27;100864.20;1686459;83;21768;-77
2022/09/05 05:18:37;;;;;;;8.95;1.82;;;;;;;18.44;51.62;100866.32;1666445;84;21187;-77
2022/09/05 05:21:43;;;;;;;9.90;2.22;;;;;;;18.64;50.90;100863.02;1635183;86;21176;-77
2022/09/05 05:24:59;;;;;;;4.40;2.42;;;;;;;18.80;49.93;100863.11;1631750;86;21869;-77
2022/09/05 05:28:19;;;;;;;6.95;2.25;;;;;;;18.91;49.72;100862.96;1647891;85;22264;-76
2022/09/05 05:31:36;;;;;;;5.65;2.95;;;;;;;19.07;49.49;100865.27;1700425;83;21887;-77
2022/09/05 05:34:50;;;;;;;5.28;2.98;;;;;;;19.33;48.99;100874.54;1697344;82;21256;-82
2022/09/05 05:38:22;;;;;;;7.33;3.87;;;;;;;19.31;49.45;100871.15;1696166;83;21762;-77
2022/09/05 05:41:33;;;;;;;6.92;3.77;;;;;;;19.32;49.71;100868.69;1677523;83;21524;-77
2022/09/05 05:44:41;;;;;;;8.28;3.47;;;;;;;19.48;48.82;100866.81;1679531;83;21784;-83
2022/09/05 05:47:53;;;;;;;7.53;3.73;;;;;;;19.60;47.85;100873.38;1672184;84;21193;-83
2022/09/05 05:51:13;;;;;;;7.78;3.40;;;;;;;19.71;48.16;100874.58;1670475;84;21186;-82
2022/09/05 05:54:51;;;;;;;9.13;3.90;;;;;;;19.78;48.08;100883.73;1670759;84;21735;-82
2022/09/05 05:58:35;;;;;;;7.87;3.90;;;;;;;19.86;48.02;100883.48;1668594;84;21181;-83
2022/09/05 06:02:19;;;;;;;7.55;4.10;;;;;;;19.81;48.05;100883.84;1662694;83;21822;-82
2022/09/05 06:06:02;;;;;;;10.10;4.40;;;;;;;19.97;48.35;100881.05;1711903;82;21730;-82
2022/09/05 06:09:46;;;;;;;7.92;4.53;;;;;;;19.96;47.39;100892.70;1712211;81;21205;-82
2022/09/05 06:13:44;;;;;;;8.25;4.90;;;;;;;20.16;46.72;100889.23;1709876;81;21185;-83
2022/09/05 06:17:32;;;;;;;12.10;5.37;;;;;;;20.10;47.04;100898.47;1713790;82;21731;-83
2022/09/05 06:21:27;;;;;;;11.97;5.33;;;;;;;20.15;47.15;100897.80;1713146;82;21738;-81
2022/09/05 06:25:31;;;;;;;9.70;5.22;;;;;;;20.21;47.22;100896.89;1684171;84;21360;-83
2022/09/05 06:29:01;;;;;;;10.75;5.50;;;;;;;20.32;46.48;100895.30;1692872;83;21551;-76
2022/09/05 06:32:09;;;;;;;;;;;;;;;20.65;46.15;100890.86;1697891;83;21817;-76
2022/09/05 06:35:37;;;;;;;11.57;4.65;;;;;;;20.87;46.00;100896.31;1695223;83;20222;-76
2022/09/05 06:39:09;;;;;;;10.65;4.50;;;;;;;21.17;44.53;100896.42;1700077;83;21217;-81
2022/09/05 06:42:31;;;;;;;8.48;4.53;;;;;;;21.26;42.33;100898.87;1702887;83;21208;-83
2022/09/05 06:45:48;;;;;;;8.08;5.03;;;;;;;21.38;41.57;100904.00;1642399;84;21235;-83
2022/09/05 06:49:18;;;;;;;7.37;4.12;;;;;;;21.65;41.47;100901.73;1667990;84;21196;-82
2022/09/05 06:53:10;;;;;;;8.23;4.87;;;;;;;21.75;40.40;100905.34;1670592;84;21433;-83
2022/09/05 06:56:25;;;;;;;9.65;4.53;;;;;;;21.75;39.88;100903.95;1656336;85;21211;-77
2022/09/05 07:00:28;;;;;;;10.90;4.83;;;;;;;21.86;40.49;100901.74;1637148;85;21192;-82
2022/09/05 07:04:09;;;;;;;13.25;4.35;;;;;;;21.91;40.29;100906.91;1663777;84;22049;-83
2022/09/05 07:07:23;;;;;;;;;;;;;;;21.91;40.56;100908.30;1638721;87;21632;-83
2022/09/05 07:10:44;;;;;;;10.15;4.53;;;;;;;21.99;40.19;100900.70;1663455;85;20206;-83
2022/09/05 07:14:03;;;;;;;12.07;4.28;;;;;;;22.20;39.40;100895.45;1649199;86;21217;-82
2022/09/05 07:17:28;;;;;;;10.82;4.40;;;;;;;22.14;39.60;100895.56;1666208;85;21435;-83
2022/09/05 07:20:43;;;;;;;11.83;4.47;;;;;;;22.30;39.52;100893.50;1632255;86;21189;-82
2022/09/05 07:24:12;;;;;;;8.15;3.40;;;;;;;22.47;39.34;100889.44;1652561;86;21744;-83
2022/09/05 07:27:49;;;;;;;10.35;4.53;;;;;;;22.56;38.41;100890.78;1652342;86;21198;-83
2022/09/05 07:31:01;;;;;;;8.85;3.67;;;;;;;22.53;37.73;100887.63;1694783;83;21826;-83
2022/09/05 07:34:32;;;;;;;9.63;4.25;;;;;;;22.35;37.90;100885.81;1677654;83;21169;-83
2022/09/05 07:37:43;;;;;;;8.90;3.65;;;;;;;22.44;37.75;100879.64;1680829;83;21209;-84
2022/09/05 07:41:08;;;;;;;11.30;3.92;;;;;;;22.62;37.48;100889.81;1712483;81;21209;-84
2022/09/05 07:44:32;;;;;;;8.95;3.70;;;;;;;22.77;36.32;100879.55;1687438;83;21220;-78
2022/09/05 07:47:40;;;;;;;8.63;2.87;;;;;;;23.15;35.64;100876.84;1678053;83;21816;-78
2022/09/05 07:51:01;;;;;;;10.70;2.45;;;;;;;23.40;34.38;100882.11;1716869;82;21176;-78
2022/09/05 07:54:27;;;;;;;8.75;3.22;;;;;;;23.34;33.55;100876.98;1712752;81;21158;-83
2022/09/05 07:57:35;;;;;;;4.70;1.92;;;;;;;23.55;33.13;100855.05;1716819;81;21754;-78
2022/09/05 08:00:42;;;;;;;4.30;2.05;;;;;;;23.39;32.24;100866.47;1718099;81;21176;-77
2022/09/05 08:03:47;;;;;;;11.63;2.70;;;;;;;23.47;32.16;100864.66;1719250;82;21240;-83
2022/09/05 08:06:53;;;;;;;4.55;2.40;;;;;;;23.40;32.14;100859.78;1717626;82;21196;-82
2022/09/05 08:10:05;;;;;;;5.35;2.72;;;;;;;23.57;32.28;100860.70;1709215;82;21200;-78
2022/09/05 08:13:13;;;;;;;;;;;;;;;23.55;31.77;100855.89;1716236;82;21795;-76
2022/09/05 08:16:24;;;;;;;12.10;2.50;;;;;;;23.75;32.23;100848.48;1722209;81;20207;-77
2022/09/05 08:20:13;;;;;;;5.17;2.92;;;;;;;23.81;31.17;100851.69;1716114;81;21401;-83
2022/09/05 08:23:58;;;;;;;13.98;2.83;;;;;;;23.78;30.90;100847.16;1714783;82;21187;-77
2022/09/05 08:27:30;;;;;;;4.97;2.08;;;;;;;23.75;31.14;100842.05;1716851;82;21542;-77
2022/09/05 08:30:39;;;;;;;6.22;2.40;;;;;;;23.89;30.99;100839.24;1714494;82;21734;-77
2022/09/05 08:33:47;;;;;;;7.80;2.30;;;;;;;23.70;29.86;100840.02;1700616;83;21156;-83
2022/09/05 08:36:57;;;;;;;4.35;2.15;;;;;;;23.80;30.16;100833.77;1670890;85;21218;-83
2022/09/05 08:40:10;;;;;;;5.97;1.90;;;;;;;24.07;29.05;100839.56;1703904;83;21200;-83
2022/09/05 08:44:16;;;;;;;3.52;2.08;;;;;;;24.20;29.42;100826.11;1706644;83;21173;-77
2022/09/05 08:47:38;;;;;;;5.40;2.20;;;;;;;24.18;29.58;100826.93;1700796;83;21489;-78
2022/09/05 08:51:03;;;;;;;7.17;2.22;;;;;;;24.00;29.39;100831.36;1705572;83;21837;-83
2022/09/05 08:54:41;;;;;;;6.08;2.45;;;;;;;24.07;29.20;100828.39;1706645;83;21279;-82
2022/09/05 08:58:07;;;;;;;4.90;1.98;;;;;;;24.29;29.01;100827.94;1705050;83;21829;-78
2022/09/05 09:01:29;;;;;;;3.90;2.02;;;;;;;24.13;29.21;100812.00;1704308;83;21228;-78
2022/09/05 09:05:14;;;;;;;5.78;2.22;;;;;;;24.09;29.07;100806.09;1705267;83;21187;-77
2022/09/05 09:08:54;;;;;;;11.75;2.35;;;;;;;24.22;28.95;100803.48;1705281;83;21237;-77
2022/09/05 09:12:15;;;;;;;3.72;1.60;;;;;;;24.39;29.30;100804.92;1665333;85;21241;-78
2022/09/05 09:15:27;;;;;;;4.80;1.70;;;;;;;24.50;27.36;100796.97;1640985;85;21755;-78
2022/09/05 09:19:00;;;;;;;7.87;1.92;;;;;;;24.53;27.04;100797.86;1642377;85;21762;-78
2022/09/05 09:22:42;;;;;;;7.20;1.77;;;;;;;24.64;27.04;100784.31;1657477;85;21570;-78
2022/09/05 09:25:58;;;;;;;2.80;1.52;;;;;;;24.64;27.14;100792.70;1696711;83;21185;-77
2022/09/05 09:29:15;;;;;;;4.65;1.90;;;;;;;24.63;26.65;100778.43;1643443;85;21196;-78
2022/09/05 09:32:37;;;;;;;4.72;2.00;;;;;;;24.51;26.95;100790.27;1662634;83;21155;-77
2022/09/05 09:35:54;;;;;;;8.08;2.00;;;;;;;24.47;26.50;100773.73;1671059;84;21656;-84
2022/09/05 09:39:14;;;;;;;2.90;1.85;;;;;;;24.46;27.11;100776.21;1666313;84;21191;-77
2022/09/05 09:42:54;;;;;;;7.00;2.00;;;;;;;24.57;26.15;100780.87;1715456;83;21132;-78
2022/09/05 09:46:26;;;;;;;2.95;1.40;;;;;;;24.39;25.76;100778.36;1693816;83;21255;-78
2022/09/05 09:49:43;;;;;;;3.58;1.70;;;;;;;24.16;25.58;100777.41;1670286;85;21180;-85
2022/09/05 09:53:13;;;;;;;4.22;1.60;;;;;;;23.92;26.21;100767.52;1686268;83;21150;-84
2022/09/05 09:56:40;;;;;;;6.10;2.27;;;;;;;23.90;26.77;100766.91;1699310;83;21188;-84
2022/09/05 10:00:20;;;;;;;8.45;2.00;;;;;;;23.97;26.08;100769.00;1693839;83;21317;-85
2022/09/05 10:03:43;;;;;;;5.40;2.00;;;;;;;24.23;25.67;100762.73;1704645;83;21195;-78
2022/09/05 10:06:56;;;;;;;6.22;1.70;;;;;;;24.35;25.90;100768.20;1697819;83;22103;-84
2022/09/05 10:10:32;;;;;;;5.37;1.77;;;;;;;24.35;25.96;100763.16;1704045;83;21259;-84
2022/09/05 10:14:32;;;;;;;7.62;1.60;;;;;;;24.17;26.09;100760.93;1700113;83;21680;-77
2022/09/05 10:18:04;;;;;;;12.80;1.70;;;;;;;24.30;26.99;100757.50;1712086;83;21829;-77
2022/09/05 10:21:36;;;;;;;2.17;1.55;;;;;;;24.55;26.61;100758.45;1663349;85;21270;-77
2022/09/05 10:25:29;;;;;;;2.65;1.60;;;;;;;24.66;25.86;100750.52;1691918;84;21190;-78
2022/09/05 10:28:43;;;;;;;7.95;1.85;;;;;;;24.63;26.12;100744.87;1635542;85;21182;-77
2022/09/05 10:32:12;;;;;;;3.55;1.55;;;;;;;24.61;25.09;100747.09;1694923;84;21255;-77
2022/09/05 10:35:40;;;;;;;3.33;1.42;;;;;;;24.44;25.80;100748.52;1643437;85;21361;-77
2022/09/05 10:38:52;;;;;;;2.50;1.47;;;;;;;24.32;26.13;100748.29;1689328;82;21200;-78
2022/09/05 10:42:15;;;;;;;4.60;1.67;;;;;;;24.23;26.61;100749.30;1693643;84;21194;-78
2022/09/05 10:45:27;;;;;;;2.90;1.37;;;;;;;24.06;26.63;100749.31;1692794;84;21713;-85
2022/09/05 10:48:48;;;;;;;4.20;1.37;;;;;;;23.60;27.01;100748.49;1678259;84;21147;-77
2022/09/05 10:51:59;;;;;;;3.62;1.20;;;;;;;23.55;27.56;100748.41;1695878;84;21842;-77
2022/09/05 10:55:57;;;;;;;2.65;1.20;;;;;;;23.54;26.95;100738.34;1694991;84;21502;-77
2022/09/05 10:59:10;;;;;;;3.33;1.35;;;;;;;23.75;26.78;100731.19;1701576;84;21248;-83
2022/09/05 11:02:29;;;;;;;4.25;1.00;;;;;;;23.80;26.45;100731.27;1678752;84;21240;-85
2022/09/05 11:05:46;;;;;;;2.22;1.00;;;;;;;23.95;26.57;100727.36;1695177;84;21267;-77
2022/09/05 11:09:14;;;;;;;4.47;1.50;;;;;;;23.94;24.88;100724.23;1698805;84;21342;-76
2022/09/05 11:12:49;;;;;;;3.22;1.30;;;;;;;24.11;25.33;100723.39;1697821;84;21378;-84
2022/09/05 11:16:37;;;;;;;2.92;1.20;;;;;;;24.09;25.75;100720.87;1691373;84;21572;-84
2022/09/05 11:19:52;;;;;;;4.25;1.35;;;;;;;23.89;25.71;100721.37;1695338;84;21185;-84
2022/09/05 11:22:56;;;;;;;5.08;1.35;;;;;;;23.82;24.80;100719.86;1695710;84;21163;-84
2022/09/05 11:26:07;;;;;;;3.58;1.37;;;;;;;23.79;25.30;100715.62;1697598;84;21196;-77
2022/09/05 11:29:17;;;;;;;2.10;1.10;;;;;;;23.64;25.59;100710.63;1697683;84;21575;-77
2022/09/05 11:32:54;;;;;;;1.93;1.10;;;;;;;23.51;27.03;100707.28;1692102;84;21726;-84
2022/09/05 11:36:16;;;;;;;3.35;1.50;;;;;;;23.53;27.78;100698.13;1654749;85;22066;-84
2022/09/05 11:39:41;;;;;;;1.70;1.22;;;;;;;23.58;27.02;100700.45;1684587;84;21543;-77
2022/09/05 11:43:21;;;;;;;2.58;1.30;;;;;;;23.75;27.06;100689.84;1694639;84;21168;-84
2022/09/05 11:46:54;;;;;;;2.58;1.20;;;;;;;23.74;27.23;100685.38;1691860;84;21573;-78
2022/09/05 11:50:24;;;;;;;17.45;1.90;;;;;;;23.83;27.44;100683.84;1651223;85;21864;-76
2022/09/05 11:53:54;;;;;;;2.42;1.60;;;;;;;23.94;27.33;100677.30;1695428;84;21177;-78
2022/09/05 11:57:15;;;;;;;2.77;1.25;;;;;;;24.00;27.13;100676.86;1674765;85;21746;-84
2022/09/05 12:01:01;;;;;;;3.00;1.40;;;;;;;23.95;26.76;100667.84;1628141;84;21204;-77
2022/09/05 12:04:50;;;;;;;2.52;1.05;;;;;;;24.05;26.40;100665.20;1698784;84;21240;-84
2022/09/05 12:08:42;;;;;;;5.28;1.30;;;;;;;24.07;26.59;100662.14;1697744;84;21185;-84
2022/09/05 12:12:29;;;;;;;1.30;1.00;;;;;;;24.03;25.43;100656.21;1673716;85;21472;-84
2022/09/05 12:15:42;;;;;;;3.05;1.20;;;;;;;24.37;25.32;100651.95;1676131;83;21176;-84
2022/09/05 12:18:36;;;;;;;4.55;1.47;;;;;;;24.48;25.06;100651.84;1685345;84;21195;-84
2022/09/05 12:21:56;;;;;;;2.55;1.37;;;;;;;24.46;24.54;100641.45;1681208;83;21551;-77
2022/09/05 12:25:19;;;;;;;4.80;1.20;;;;;;;24.48;24.60;100637.02;1684478;84;21254;-83
2022/09/05 12:28:32;;;;;;;3.17;0.90;;;;;;;24.53;24.53;100627.30;1690492;83;21213;-83
2022/09/05 12:32:00;;;;;;;3.75;0.82;;;;;;;24.66;24.90;100634.45;1665920;85;21813;-83
2022/09/05 12:35:09;;;;;;;5.45;1.22;;;;;;;24.52;23.51;100636.80;1678944;83;21201;-83
2022/09/05 12:38:51;;;;;;;4.25;1.15;;;;;;;24.44;23.99;100636.69;1689707;83;21153;-83
2022/09/05 12:42:17;;;;;;;3.25;1.05;;;;;;;24.34;24.14;100634.29;1685662;83;21237;-84
2022/09/05 12:45:31;;;;;;;2.10;0.95;;;;;;;24.21;24.04;100627.97;1690024;84;21257;-83
2022/09/05 12:48:50;;;;;;;5.15;1.25;;;;;;;24.16;24.29;100631.25;1695972;83;21197;-84
2022/09/05 12:52:08;;;;;;;;;;;;;;;24.13;23.94;100627.01;1701105;83;21233;-84
2022/09/05 12:55:30;;;;;;;1.80;0.85;;;;;;;24.08;24.24;100620.52;1700394;84;20207;-84
2022/09/05 12:58:37;;;;;;;2.52;1.12;;;;;;;24.18;23.98;100608.95;1696141;84;21188;-84
2022/09/05 13:01:46;;;;;;;1.12;0.85;;;;;;;24.07;24.01;100601.50;1708581;83;21180;-84
2022/09/05 13:04:57;;;;;;;2.77;1.17;;;;;;;24.09;23.93;100610.50;1696612;84;21223;-84
2022/09/05 13:08:04;;;;;;;1.67;1.15;;;;;;;24.04;24.52;100609.00;1708319;84;21189;-84
2022/09/05 13:11:09;;;;;;;5.78;1.17;;;;;;;24.08;23.46;100607.38;1695454;84;21543;-84
2022/09/05 13:14:35;;;;;;;7.55;1.40;;;;;;;24.32;23.87;100605.18;1707102;84;21216;-84
2022/09/05 13:17:52;;;;;;;2.33;1.27;;;;;;;24.34;23.77;100608.58;1694938;84;21550;-84
2022/09/05 13:21:07;;;;;;;3.30;1.20;;;;;;;24.23;24.60;100604.81;1707569;84;21879;-85
2022/09/05 13:24:21;;;;;;;3.27;1.10;;;;;;;24.26;24.08;100602.59;1695690;84;21136;-84
2022/09/05 13:27:32;;;;;;;1.65;1.20;;;;;;;24.26;24.19;100598.41;1708461;84;21183;-85
2022/09/05 13:30:37;;;;;;;2.58;1.20;;;;;;;24.30;23.70;100599.58;1696967;84;21769;-85
2022/09/05 13:33:54;;;;;;;2.80;1.37;;;;;;;24.25;23.71;100593.92;1707141;84;21561;-85
2022/09/05 13:37:26;;;;;;;1.67;1.10;;;;;;;24.36;23.27;100603.59;1696662;84;21586;-84
2022/09/05 13:40:33;;;;;;;4.53;2.00;;;;;;;24.42;24.11;100596.14;1639491;87;21208;-84
2022/09/05 13:43:41;;;;;;;3.17;1.30;;;;;;;24.45;24.01;100596.98;1690500;85;21198;-85
2022/09/05 13:46:37;;;;;;;3.72;1.50;;;;;;;24.36;23.79;100608.30;1691536;85;21189;-84
2022/09/05 13:49:39;;;;;;;5.53;1.37;;;;;;;24.32;23.86;100598.75;1691221;85;21189;-85
2022/09/05 13:52:48;;;;;;;3.22;0.95;;;;;;;24.38;23.96;100600.55;1691552;84;21993;-84
2022/09/05 13:55:59;;;;;;;1.92;1.05;;;;;;;24.40;23.95;100591.34;1675435;85;21270;-83
2022/09/05 13:59:17;;;;;;;2.37;1.20;;;;;;;24.47;24.52;100593.40;1669803;86;21875;-85
2022/09/05 14:02:52;;;;;;;3.10;1.30;;;;;;;24.54;25.28;100591.23;1671461;86;21247;-84
2022/09/05 14:06:05;;;;;;;4.58;1.60;;;;;;;24.53;24.75;100597.94;1685744;84;21548;-84
2022/09/05 14:09:42;;;;;;;5.08;1.52;;;;;;;24.35;23.97;100597.68;1664552;86;21250;-84
2022/09/05 14:12:56;;;;;;;10.70;1.40;;;;;;;24.40;24.31;100592.73;1672456;85;21252;-83
2022/09/05 14:16:10;;;;;;;1.15;0.93;;;;;;;24.30;24.62;100593.98;1701026;84;21262;-83
2022/09/05 14:23:01;;;;;;;6.53;1.30;;;;;;;24.06;24.84;100591.44;1668529;86;21777;-84
2022/09/05 14:26:08;;;;;;;6.83;1.50;;;;;;;24.01;25.26;100596.13;1676357;84;21236;-84
2022/09/05 14:29:35;;;;;;;2.67;1.62;;;;;;;23.97;25.06;100595.78;1668524;86;21235;-85
2022/09/05 14:32:50;;;;;;;5.08;1.57;;;;;;;23.83;25.37;100594.47;1668557;86;21280;-85
2022/09/05 14:36:44;;;;;;;2.85;1.30;;;;;;;23.81;25.60;100596.13;1689779;83;21256;-85
2022/09/05 14:40:02;;;;;;;4.03;1.37;;;;;;;23.67;25.64;100590.61;1675502;85;21254;-85
2022/09/05 14:43:29;;;;;;;4.45;1.35;;;;;;;23.69;25.37;100591.19;1670367;86;21788;-85
2022/09/05 14:47:21;;;;;;;2.00;1.20;;;;;;;23.70;25.85;100596.51;1670838;86;21195;-85
2022/09/05 14:50:48;;;;;;;3.20;1.40;;;;;;;23.53;25.86;100592.87;1669488;86;21234;-84
2022/09/05 14:54:18;;;;;;;3.98;1.45;;;;;;;23.21;26.38;100590.67;1673934;85;21242;-84
2022/09/05 14:57:28;;;;;;;4.83;1.42;;;;;;;23.28;26.31;100593.84;1676681;85;21251;-84
2022/09/05 15:00:45;;;;;;;2.37;1.30;;;;;;;23.03;26.45;100593.70;1678949;85;21210;-85
2022/09/05 15:03:55;;;;;;;10.65;1.40;;;;;;;23.02;26.83;100597.59;1677799;85;21240;-84
2022/09/05 15:07:07;;;;;;;;;;;;;;;22.91;27.26;100591.52;1682255;85;21809;-85
2022/09/05 15:10:27;;;;;;;2.87;1.32;;;;;;;22.97;27.34;100592.48;1679022;85;20194;-84
2022/09/05 15:13:37;;;;;;;5.75;1.45;;;;;;;23.02;27.25;100591.17;1679771;85;21667;-84
2022/09/05 15:16:45;;;;;;;4.67;1.55;;;;;;;23.06;27.24;100588.18;1679550;85;21185;-85
2022/09/05 15:20:07;;;;;;;4.87;1.60;;;;;;;23.29;27.04;100586.63;1680005;85;21773;-85
2022/09/05 15:23:16;;;;;;;5.70;1.40;;;;;;;23.08;27.61;100584.02;1680247;85;21590;-85
2022/09/05 15:26:29;;;;;;;3.90;1.62;;;;;;;23.10;27.60;100584.64;1678944;85;21209;-84
2022/09/05 15:29:41;;;;;;;4.93;1.50;;;;;;;23.05;27.80;100585.91;1680417;85;21212;-84
2022/09/05 15:32:46;;;;;;;2.85;1.35;;;;;;;22.83;28.17;100583.55;1680445;85;21372;-84
2022/09/05 15:35:53;;;;;;;2.25;1.40;;;;;;;22.82;28.28;100579.05;1680339;85;21260;-84
2022/09/05 15:38:59;;;;;;;5.55;1.32;;;;;;;22.46;28.70;100578.38;1690226;85;21212;-84
2022/09/05 15:42:26;;;;;;;4.25;1.00;;;;;;;22.37;29.20;100577.08;1691766;85;21176;-84
2022/09/05 15:45:45;;;;;;;3.47;1.30;;;;;;;22.38;30.15;100582.94;1691825;85;21223;-84
2022/09/05 15:48:50;;;;;;;3.30;1.77;;;;;;;22.23;30.96;100583.48;1691699;85;21786;-84
2022/09/05 15:51:58;;;;;;;2.65;1.47;;;;;;;22.10;31.05;100582.33;1689789;85;21187;-84